Time;durP1;ratioP1;P1;durP2;ratioP2;P2;SDS_P1;SDS_P2;PMS_P1;PMS_P2;Temp;Humidity;BMP_temperature;BMP_pressure;BME280_temperature;BME280_humidity;BME280_pressure;Samples;Min_cycle;Max_cycle;Signal;HPM_P1;HPM_P2
2022/09/16 00:01:33;;;;;;;;;;;;;;;12.01;100.00;97053.47;1745968;82;20212;-87
2022/09/16 00:03:59;;;;;;;;;;;;;;;11.97;100.00;97056.58;1744515;82;20158;-87
2022/09/16 00:06:27;;;;;;;;;;;;;;;11.92;100.00;97054.54;1740530;82;20165;-87
2022/09/16 00:08:54;;;;;;;;;;;;;;;11.90;100.00;97060.84;1721870;82;21069;-88
2022/09/16 00:11:20;;;;;;;;;;;;;;;11.88;100.00;97054.38;1744631;82;20142;-87
2022/09/16 00:13:47;;;;;;;;;;;;;;;11.85;100.00;97059.05;1738309;82;20156;-89
2022/09/16 00:16:22;;;;;;;;;;;;;;;11.80;100.00;97069.50;1702809;83;20233;-88
2022/09/16 00:18:47;;;;;;;;;;;;;;;11.76;100.00;97070.38;1719571;83;20139;-87
2022/09/16 00:21:13;;;;;;;;;;;;;;;11.72;100.00;97066.14;1721247;83;21191;-88
2022/09/16 00:23:39;;;;;;;;;;;;;;;11.72;100.00;97070.21;1721146;83;20183;-88
2022/09/16 00:26:05;;;;;;;;;;;;;;;11.73;100.00;97073.73;1677528;85;20182;-90
2022/09/16 00:28:31;;;;;;;;;;;;;;;11.74;100.00;97072.61;1677116;85;20151;-88
2022/09/16 00:31:00;;;;;;;;;;;;;;;11.76;100.00;97075.81;1677031;85;20176;-87
2022/09/16 00:33:26;;;;;;;;;;;;;;;11.78;100.00;97079.01;1655480;86;21225;-88
2022/09/16 00:35:52;;;;;;;;;;;;;;;11.82;100.00;97074.61;1716535;83;20153;-87
2022/09/16 00:38:18;;;;;;;;;;;;;;;11.81;100.00;97077.08;1677210;85;20167;-87
2022/09/16 00:40:45;;;;;;;;;;;;;;;11.81;100.00;97080.59;1677248;85;20144;-87
2022/09/16 00:43:13;;;;;;;;;;;;;;;11.82;100.00;97074.61;1655619;86;20188;-90
2022/09/16 00:45:39;;;;;;;;;;;;;;;11.83;100.00;97077.56;1716671;83;21886;-89
2022/09/16 00:48:06;;;;;;;;;;;;;;;11.83;100.00;97076.20;1676970;85;20206;-89
2022/09/16 00:50:44;;;;;;;;;;;;;;;11.84;100.00;97077.81;1655813;86;20157;-90
2022/09/16 00:53:13;;;;;;;;;;;;;;;11.82;100.00;97078.12;1655573;86;20141;-87
2022/09/16 00:55:39;;;;;;;;;;;;;;;11.88;100.00;97081.52;1655835;86;20403;-89
2022/09/16 00:58:14;;;;;;;;;;;;;;;11.92;100.00;97073.55;1716330;83;21926;-90
2022/09/16 01:00:40;;;;;;;;;;;;;;;11.94;100.00;97077.54;1716479;83;20188;-88
2022/09/16 01:03:06;;;;;;;;;;;;;;;11.99;100.00;97074.70;1677285;85;20274;-87
2022/09/16 01:05:31;;;;;;;;;;;;;;;12.03;100.00;97083.81;1677290;85;20174;-87
2022/09/16 01:07:57;;;;;;;;;;;;;;;12.07;100.00;97083.45;1677108;84;20230;-87
2022/09/16 01:10:24;;;;;;;;;;;;;;;12.12;100.00;97088.73;1677294;85;21084;-88
2022/09/16 01:12:55;;;;;;;;;;;;;;;12.14;100.00;97083.02;1676930;85;20456;-90
2022/09/16 01:15:22;;;;;;;;;;;;;;;12.17;100.00;97094.60;1680728;85;20170;-88
2022/09/16 01:18:04;;;;;;;;;;;;;;;12.20;100.00;97099.95;1683335;85;20162;-89
2022/09/16 01:20:42;;;;;;;;;;;;;;;12.20;100.00;97098.05;1683303;85;20178;-89
2022/09/16 01:23:38;;;;;;;;;;;;;;;12.19;100.00;97091.02;1681639;85;20518;-88
2022/09/16 01:26:19;;;;;;;;;;;;;;;12.19;100.00;97100.52;1698995;84;20151;-87
2022/09/16 01:28:55;;;;;;;;;;;;;;;12.20;100.00;97102.11;1698649;84;20188;-90
2022/09/16 01:31:37;;;;;;;;;;;;;;;12.20;100.00;97098.05;1662888;85;20166;-90
2022/09/16 01:34:19;;;;;;;;;;;;;;;12.17;100.00;97093.25;1681591;85;20166;-88
2022/09/16 01:36:51;;;;;;;;;;;;;;;12.20;100.00;97095.89;1662914;85;21065;-87
2022/09/16 01:39:29;;;;;;;;;;;;;;;12.19;100.00;97085.58;1681168;85;20159;-88
2022/09/16 01:42:15;;;;;;;;;;;;;;;12.09;100.00;97080.42;1652874;87;20205;-90
2022/09/16 01:44:47;;;;;;;;;;;;;;;12.04;100.00;97081.91;1681928;85;20147;-89
2022/09/16 01:47:22;;;;;;;;;;;;;;;12.00;100.00;97085.81;1652905;87;20241;-89
2022/09/16 01:50:11;;;;;;;;;;;;;;;11.98;100.00;97085.33;1681927;85;21067;-87
2022/09/16 01:52:47;;;;;;;;;;;;;;;11.99;100.00;97089.64;1656112;86;20301;-87
2022/09/16 01:55:16;;;;;;;;;;;;;;;11.95;100.00;97081.86;1681743;85;20193;-88
2022/09/16 01:57:51;;;;;;;;;;;;;;;11.89;100.00;97087.19;1662635;86;20161;-90
2022/09/16 02:00:17;;;;;;;;;;;;;;;11.90;100.00;97094.78;1681880;85;20413;-90
2022/09/16 02:03:04;;;;;;;;;;;;;;;11.90;100.00;97101.00;1681800;85;21067;-88
2022/09/16 02:05:33;;;;;;;;;;;;;;;11.93;100.00;97092.23;1681932;85;20157;-88
2022/09/16 02:08:11;;;;;;;;;;;;;;;11.93;100.00;97081.93;1662786;85;20209;-89
2022/09/16 02:10:50;;;;;;;;;;;;;;;11.93;100.00;97086.00;1681746;85;20142;-89
2022/09/16 02:13:28;;;;;;;;;;;;;;;11.95;100.00;97091.91;1663860;84;20216;-87
2022/09/16 02:15:56;;;;;;;;;;;;;;;11.99;100.00;97093.71;1675598;85;21191;-89
2022/09/16 02:18:24;;;;;;;;;;;;;;;12.02;100.00;97086.29;1709256;83;20413;-90
2022/09/16 02:20:50;;;;;;;;;;;;;;;12.03;100.00;97085.73;1677555;85;20408;-89
2022/09/16 02:23:24;;;;;;;;;;;;;;;12.04;100.00;97093.56;1675681;85;20367;-87
2022/09/16 02:25:50;;;;;;;;;;;;;;;12.07;100.00;97103.02;1655835;86;20133;-87
2022/09/16 02:28:25;;;;;;;;;;;;;;;12.09;100.00;97111.65;1655464;86;21135;-88
2022/09/16 02:30:52;;;;;;;;;;;;;;;12.12;100.00;97106.95;1716446;83;20185;-89
2022/09/16 02:33:17;;;;;;;;;;;;;;;12.10;100.00;97109.17;1716336;83;20189;-89
2022/09/16 02:35:46;;;;;;;;;;;;;;;12.06;100.00;97115.00;1716439;83;20604;-89
2022/09/16 02:38:15;;;;;;;;;;;;;;;12.03;100.00;97116.40;1716311;83;20197;-87
2022/09/16 02:40:45;;;;;;;;;;;;;;;12.04;100.00;97108.50;1688048;83;21301;-89
2022/09/16 02:43:11;;;;;;;;;;;;;;;12.06;100.00;97109.56;1715490;82;20200;-87
2022/09/16 02:45:58;;;;;;;;;;;;;;;12.07;100.00;97120.11;1716440;83;20254;-89
2022/09/16 02:48:28;;;;;;;;;;;;;;;12.07;100.00;97116.59;1716296;83;20185;-87
2022/09/16 02:51:00;;;;;;;;;;;;;;;12.09;100.00;97115.72;1716579;83;20211;-87
2022/09/16 02:53:37;;;;;;;;;;;;;;;12.11;100.00;97121.08;1715977;83;21023;-89
2022/09/16 02:56:06;;;;;;;;;;;;;;;12.11;100.00;97119.72;1716386;83;20447;-87
2022/09/16 02:58:32;;;;;;;;;;;;;;;12.13;100.00;97121.59;1715883;83;20164;-89
2022/09/16 03:00:58;;;;;;;;;;;;;;;12.14;100.00;97107.45;1716468;83;20164;-87
2022/09/16 03:03:23;;;;;;;;;;;;;;;12.14;100.00;97110.97;1716212;83;20187;-89
2022/09/16 03:06:11;;;;;;;;;;;;;;;12.13;100.00;97103.11;1716566;83;21138;-87
2022/09/16 03:08:36;;;;;;;;;;;;;;;12.13;100.00;97105.30;1716297;83;20188;-88
2022/09/16 03:11:18;;;;;;;;;;;;;;;12.11;100.00;97100.72;1716446;83;20218;-89
2022/09/16 03:13:53;;;;;;;;;;;;;;;12.12;100.00;97099.59;1722889;82;20143;-89
2022/09/16 03:16:34;;;;;;;;;;;;;;;12.09;100.00;97096.72;1744568;82;20136;-89
2022/09/16 03:19:32;;;;;;;;;;;;;;;12.10;100.00;97096.40;1744039;82;21055;-87
2022/09/16 03:22:07;;;;;;;;;;;;;;;12.11;100.00;97098.00;1744269;82;20395;-89
2022/09/16 03:25:02;;;;;;;;;;;;;;;12.09;100.00;97091.28;1728436;82;20144;-88
2022/09/16 03:27:37;;;;;;;;;;;;;;;12.04;100.00;97084.62;1700856;83;20166;-89
2022/09/16 03:30:05;;;;;;;;;;;;;;;12.04;100.00;97087.33;1721275;83;20432;-88
2022/09/16 03:32:34;;;;;;;;;;;;;;;12.01;100.00;97081.98;1721279;83;21098;-88
2022/09/16 03:35:09;;;;;;;;;;;;;;;12.00;100.00;97087.73;1702586;83;20414;-88
2022/09/16 03:37:35;;;;;;;;;;;;;;;12.00;100.00;97083.66;1721280;83;20187;-87
2022/09/16 03:40:07;;;;;;;;;;;;;;;11.99;100.00;97086.12;1721261;83;20197;-88
2022/09/16 03:42:33;;;;;;;;;;;;;;;11.99;100.00;97088.28;1719762;83;20175;-89
2022/09/16 03:44:59;;;;;;;;;;;;;;;11.97;100.00;97088.36;1720992;82;21068;-89
2022/09/16 03:47:25;;;;;;;;;;;;;;;11.96;100.00;97090.24;1721263;83;20177;-88
2022/09/16 03:49:50;;;;;;;;;;;;;;;11.97;100.00;97093.23;1721186;83;20241;-88
2022/09/16 03:52:18;;;;;;;;;;;;;;;11.98;100.00;97087.24;1721385;83;20157;-90
2022/09/16 03:54:44;;;;;;;;;;;;;;;11.96;100.00;97083.45;1721137;83;20168;-88
2022/09/16 03:57:09;;;;;;;;;;;;;;;11.97;100.00;97091.07;1721289;83;21094;-88
2022/09/16 03:59:35;;;;;;;;;;;;;;;11.93;100.00;97081.93;1721387;83;20276;-89
2022/09/16 04:02:01;;;;;;;;;;;;;;;11.91;100.00;97090.95;1721305;83;20284;-87
2022/09/16 04:04:27;;;;;;;;;;;;;;;11.86;100.00;97097.30;1721183;83;20229;-89
2022/09/16 04:06:52;;;;;;;;;;;;;;;11.83;100.00;97093.30;1721306;83;20209;-89
2022/09/16 04:09:18;;;;;;;;;;;;;;;11.77;100.00;97092.34;1721083;83;21873;-88
2022/09/16 04:11:45;;;;;;;;;;;;;;;11.69;100.00;97097.95;1721042;83;20599;-89
2022/09/16 04:14:10;;;;;;;;;;;;;;;11.65;100.00;97100.25;1721010;83;20234;-88
2022/09/16 04:16:36;;;;;;;;;;;;;;;11.61;100.00;97095.17;1722320;83;20162;-86
2022/09/16 04:19:02;;;;;;;;;;;;;;;11.56;100.00;97099.63;1721780;83;20150;-87
2022/09/16 04:21:28;;;;;;;;;;;;;;;11.52;100.00;97097.27;1679256;83;21080;-89
2022/09/16 04:23:54;;;;;;;;;;;;;;;11.50;100.00;97109.55;1719232;83;20200;-87
2022/09/16 04:26:20;;;;;;;;;;;;;;;11.47;100.00;97119.66;1716383;83;20176;-88
2022/09/16 04:28:46;;;;;;;;;;;;;;;11.46;100.00;97122.94;1716199;83;20251;-87
2022/09/16 04:31:13;;;;;;;;;;;;;;;11.46;100.00;97117.51;1716415;83;20164;-89
2022/09/16 04:33:39;;;;;;;;;;;;;;;11.45;100.00;97122.69;1687901;83;21145;-88
2022/09/16 04:36:11;;;;;;;;;;;;;;;11.43;100.00;97130.31;1716270;83;20198;-87
2022/09/16 04:38:37;;;;;;;;;;;;;;;11.46;100.00;97134.34;1716252;83;20247;-89
2022/09/16 04:41:05;;;;;;;;;;;;;;;11.47;100.00;97137.30;1716421;83;20189;-88
2022/09/16 04:43:31;;;;;;;;;;;;;;;11.45;100.00;97131.35;1716053;83;20196;-90
2022/09/16 04:45:56;;;;;;;;;;;;;;;11.40;100.00;97137.72;1716066;83;21133;-86
2022/09/16 04:48:22;;;;;;;;;;;;;;;11.35;100.00;97137.81;1716200;83;20219;-89
2022/09/16 04:50:48;;;;;;;;;;;;;;;11.31;100.00;97139.55;1716313;83;20203;-87
2022/09/16 04:53:14;;;;;;;;;;;;;;;11.30;100.00;97143.37;1716250;83;20472;-87
2022/09/16 04:55:40;;;;;;;;;;;;;;;11.29;100.00;97141.22;1716501;83;20167;-88
2022/09/16 04:58:05;;;;;;;;;;;;;;;11.28;100.00;97142.88;1716180;83;21097;-87
2022/09/16 05:00:31;;;;;;;;;;;;;;;11.20;100.00;97145.76;1716490;83;20301;-87
2022/09/16 05:02:57;;;;;;;;;;;;;;;11.20;100.00;97147.67;1716500;83;20243;-89
2022/09/16 05:05:23;;;;;;;;;;;;;;;11.20;100.00;97149.03;1716145;83;20171;-87
2022/09/16 05:07:49;;;;;;;;;;;;;;;11.21;100.00;97150.63;1726491;82;20693;-88
2022/09/16 05:10:14;;;;;;;;;;;;;;;11.23;100.00;97148.41;1738404;82;21876;-88
2022/09/16 05:12:40;;;;;;;;;;;;;;;11.23;100.00;97147.84;1736776;82;20223;-89
2022/09/16 05:15:07;;;;;;;;;;;;;;;11.23;100.00;97151.12;1681000;85;20292;-88
2022/09/16 05:17:33;;;;;;;;;;;;;;;11.27;100.00;97149.39;1678382;85;20199;-89
2022/09/16 05:20:00;;;;;;;;;;;;;;;11.30;100.00;97146.89;1682058;85;20270;-87
2022/09/16 05:22:25;;;;;;;;;;;;;;;11.39;100.00;97145.61;1730518;82;21182;-89
2022/09/16 05:24:51;;;;;;;;;;;;;;;11.55;100.00;97144.70;1731788;82;20188;-89
2022/09/16 05:27:17;;;;;;;;;;;;;;;11.83;100.00;97144.87;1703525;82;20187;-87
2022/09/16 05:29:43;;;;;;;;;;;;;;;12.04;100.00;97143.80;1681919;85;20172;-90
2022/09/16 05:32:09;;;;;;;;;;;;;;;12.13;100.00;97142.48;1653077;87;20264;-89
2022/09/16 05:34:35;;;;;;;;;;;;;;;12.21;100.00;97143.09;1681978;85;21083;-89
2022/09/16 05:37:01;;;;;;;;;;;;;;;12.22;100.00;97139.82;1673033;85;20181;-88
2022/09/16 05:39:27;;;;;;;;;;;;;;;12.19;100.00;97122.24;1677047;85;20184;-89
2022/09/16 05:41:55;;;;;;;;;;;;;;;12.21;100.00;97126.00;1675261;85;20468;-87
2022/09/16 05:44:21;;;;;;;;;;;;;;;12.21;100.00;97120.56;1728824;82;20489;-88
2022/09/16 05:46:47;;;;;;;;;;;;;;;12.19;100.00;97110.02;1727588;82;21184;-88
2022/09/16 05:49:19;;;;;;;;;;;;;;;12.20;100.00;97111.63;1711042;82;20270;-89
2022/09/16 05:51:40;;;;;;;;;;;;;;;12.24;100.00;97109.10;1729711;82;20166;-89
2022/09/16 05:54:07;;;;;;;;;;;;;;;12.33;100.00;97111.30;1714747;82;37995;-89
2022/09/16 05:56:33;;;;;;;;;;;;;;;12.37;100.00;97114.98;1723114;82;20189;-90
2022/09/16 05:58:59;;;;;;;;;;;;;;;12.39;100.00;97116.29;1735331;82;21116;-88
2022/09/16 06:01:27;;;;;;;;;;;;;;;12.47;100.00;97116.05;1736594;82;20204;-89
2022/09/16 06:03:53;;;;;;;;;;;;;;;12.58;100.00;97119.31;1733644;82;20152;-90
2022/09/16 06:06:31;;;;;;;;;;;;;;;12.70;100.00;97120.30;1731411;82;20492;-87
2022/09/16 06:08:59;;;;;;;;;;;;;;;12.85;100.00;97125.88;1732568;82;20207;-89
2022/09/16 06:11:26;;;;;;;;;;;;;;;12.93;100.00;97129.73;1715585;83;21148;-86
2022/09/16 06:13:55;;;;;;;;;;;;;;;13.04;100.00;97124.80;1701779;83;20678;-87
2022/09/16 06:16:22;;;;;;;;;;;;;;;13.07;100.00;97124.16;1725016;82;20185;-90
2022/09/16 06:18:47;;;;;;;;;;;;;;;13.12;100.00;97122.66;1725537;82;20207;-88
2022/09/16 06:21:13;;;;;;;;;;;;;;;13.19;100.00;97124.35;1737072;82;20266;-87
2022/09/16 06:23:39;;;;;;;;;;;;;;;13.27;100.00;97115.43;1681464;84;21138;-87
2022/09/16 06:26:10;;;;;;;;;;;;;;;13.35;100.00;97112.48;1676831;85;20243;-90
2022/09/16 06:28:36;;;;;;;;;;;;;;;13.35;100.00;97109.76;1671169;84;20139;-89
2022/09/16 06:31:13;;;;;;;;;;;;;;;13.37;100.00;97111.03;1669269;85;20199;-87
2022/09/16 06:33:39;;;;;;;;;;;;;;;13.44;100.00;97120.89;1679621;85;20238;-87
2022/09/16 06:36:06;;;;;;;;;;;;;;;13.52;100.00;97122.02;1673872;85;21068;-87
2022/09/16 06:38:32;;;;;;;;;;;;;;;13.64;100.00;97119.44;1703707;84;20493;-89
2022/09/16 06:41:00;;;;;;;;;;;;;;;13.90;100.00;97127.58;1684570;84;20198;-89
2022/09/16 06:43:26;;;;;;;;;;;;;;;14.28;100.00;97124.95;1667633;84;20235;-87
2022/09/16 06:45:58;;;;;;;;;;;;;;;14.52;100.00;97122.23;1663167;85;20157;-90
2022/09/16 06:48:25;;;;;;;;;;;;;;;14.52;100.00;97123.59;1652235;85;21147;-88
2022/09/16 06:50:59;;;;;;;;;;;;;;;14.76;100.00;97125.19;1665131;85;20449;-89
2022/09/16 06:53:25;;;;;;;;;;;;;;;15.04;100.00;97119.26;1660890;85;20166;-87
2022/09/16 06:55:51;;;;;;;;;;;;;;;15.13;100.00;97116.73;1665919;85;20151;-89
2022/09/16 06:58:17;;;;;;;;;;;;;;;15.22;100.00;97121.57;1670646;85;20185;-88
2022/09/16 07:00:43;;;;;;;;;;;;;;;15.69;100.00;97119.23;1673443;85;21174;-88
2022/09/16 07:03:08;;;;;;;;;;;;;;;16.28;100.00;97112.16;1727591;82;20218;-88
2022/09/16 07:05:34;;;;;;;;;;;;;;;16.77;100.00;97115.78;1723286;82;20341;-89
2022/09/16 07:08:00;;;;;;;;;;;;;;;17.58;100.00;97117.27;1727640;82;20284;-89
2022/09/16 07:10:26;;;;;;;;;;;;;;;18.19;100.00;97119.22;1720865;82;20198;-88
2022/09/16 07:12:52;;;;;;;;;;;;;;;18.87;100.00;97113.53;1730180;82;21080;-88
2022/09/16 07:15:18;;;;;;;;;;;;;;;19.37;100.00;97117.44;1728433;82;20273;-88
2022/09/16 07:17:43;;;;;;;;;;;;;;;19.88;98.26;97108.33;1723246;82;20279;-88
2022/09/16 07:20:09;;;;;;;;;;;;;;;20.07;87.64;97119.31;1724603;82;20263;-88
2022/09/16 07:22:35;;;;;;;;;;;;;;;20.18;83.87;97117.58;1725113;82;20282;-90
2022/09/16 07:25:00;;;;;;;;;;;;;;;20.29;87.52;97122.70;1728443;82;21168;-90
2022/09/16 07:27:26;;;;;;;;;;;;;;;20.36;79.60;97117.12;1726197;82;20216;-88
2022/09/16 07:29:55;;;;;;;;;;;;;;;20.52;80.82;97102.70;1744174;82;20196;-90
2022/09/16 07:32:21;;;;;;;;;;;;;;;21.14;83.70;97099.17;1729611;82;20178;-87
2022/09/16 07:34:47;;;;;;;;;;;;;;;21.90;82.79;97104.56;1723420;82;20214;-90
2022/09/16 07:37:13;;;;;;;;;;;;;;;22.27;73.99;97111.50;1724598;82;21076;-88
2022/09/16 07:39:39;;;;;;;;;;;;;;;22.59;72.44;97122.88;1727755;82;20143;-90
2022/09/16 07:42:05;;;;;;;;;;;;;;;22.78;67.57;97119.09;1723374;82;20215;-88
2022/09/16 07:44:31;;;;;;;;;;;;;;;22.94;69.22;97120.25;1722691;82;20226;-90
2022/09/16 07:46:57;;;;;;;;;;;;;;;22.76;63.90;97115.34;1719512;82;20195;-88
2022/09/16 07:49:23;;;;;;;;;;;;;;;23.22;66.96;97121.84;1731001;82;21156;-90
2022/09/16 07:51:48;;;;;;;;;;;;;;;23.56;63.96;97122.45;1722903;82;20262;-88
2022/09/16 07:54:15;;;;;;;;;;;;;;;23.26;61.12;97123.27;1723974;82;20282;-88
2022/09/16 07:56:41;;;;;;;;;;;;;;;22.62;62.08;97122.69;1742042;82;20276;-88
2022/09/16 07:59:11;;;;;;;;;;;;;;;22.80;62.39;97116.74;1719396;82;20199;-90
2022/09/16 08:01:37;;;;;;;;;;;;;;;23.64;61.62;97129.64;1718091;82;21254;-88
2022/09/16 08:04:03;;;;;;;;;;;;;;;23.75;60.15;97128.30;1725257;82;20228;-89
2022/09/16 08:06:29;;;;;;;;;;;;;;;24.12;54.74;97127.30;1730513;82;20193;-89
2022/09/16 08:08:57;;;;;;;;;;;;;;;24.50;58.46;97123.66;1731387;82;20332;-89
2022/09/16 08:11:25;;;;;;;;;;;;;;;24.54;55.86;97121.70;1741953;82;20188;-89
2022/09/16 08:13:51;;;;;;;;;;;;;;;24.37;55.11;97124.63;1729734;81;21753;-89
2022/09/16 08:16:20;;;;;;;;;;;;;;;24.61;55.18;97123.90;1731544;82;20767;-90
2022/09/16 08:18:47;;;;;;;;;;;;;;;24.62;55.90;97122.70;1731565;82;20197;-88
2022/09/16 08:21:15;;;;;;;;;;;;;;;24.74;52.15;97119.55;1729945;81;20204;-88
2022/09/16 08:23:41;;;;;;;;;;;;;;;23.07;54.49;97116.82;1732278;81;20311;-89
2022/09/16 08:26:08;;;;;;;;;;;;;;;21.97;55.75;97121.20;1734412;82;21434;-88
2022/09/16 08:28:34;;;;;;;;;;;;;;;21.01;56.97;97121.98;1736432;82;20164;-88
2022/09/16 08:31:00;;;;;;;;;;;;;;;21.37;54.77;97125.33;1732287;82;20290;-88
2022/09/16 08:33:26;;;;;;;;;;;;;;;20.40;57.37;97128.39;1725698;82;20275;-88
2022/09/16 08:36:01;;;;;;;;;;;;;;;21.45;55.60;97116.00;1709930;82;20197;-89
2022/09/16 08:38:27;;;;;;;;;;;;;;;22.76;56.44;97112.58;1730243;82;21307;-88
2022/09/16 08:40:56;;;;;;;;;;;;;;;23.90;52.21;97120.87;1716863;82;20191;-88
2022/09/16 08:43:38;;;;;;;;;;;;;;;25.42;53.48;97117.38;1705352;82;20201;-90
2022/09/16 08:46:19;;;;;;;;;;;;;;;26.32;46.73;97108.92;1696571;83;20187;-88
2022/09/16 08:48:51;;;;;;;;;;;;;;;25.12;50.01;97117.79;1697102;82;20145;-88
2022/09/16 08:51:18;;;;;;;;;;;;;;;23.61;50.48;97123.51;1723491;82;21318;-89
2022/09/16 08:53:56;;;;;;;;;;;;;;;22.23;50.60;97123.10;1722914;82;20247;-88
2022/09/16 08:56:23;;;;;;;;;;;;;;;21.21;53.43;97116.40;1731184;82;20244;-90
2022/09/16 08:58:52;;;;;;;;;;;;;;;20.27;55.35;97129.15;1723405;82;20531;-88
2022/09/16 09:01:21;;;;;;;;;;;;;;;19.94;53.40;97124.18;1725321;81;20488;-88
2022/09/16 09:03:47;;;;;;;;;;;;;;;18.99;56.98;97114.03;1721368;82;21161;-89
2022/09/16 09:06:30;;;;;;;;;;;;;;;18.46;60.58;97123.66;1724459;82;20195;-90
2022/09/16 09:09:02;;;;;;;;;;;;;;;18.11;61.40;97118.80;1727843;82;20213;-89
2022/09/16 09:11:41;;;;;;;;;;;;;;;17.69;62.48;97120.56;1730093;82;20201;-88
2022/09/16 09:14:13;;;;;;;;;;;;;;;17.56;64.63;97115.45;1739871;82;20584;-88
2022/09/16 09:16:58;;;;;;;;;;;;;;;17.64;65.17;97112.58;1739621;82;20966;-89
2022/09/16 09:19:43;;;;;;;;;;;;;;;17.78;65.14;97125.93;1723048;82;20445;-87
2022/09/16 09:22:34;;;;;;;;;;;;;;;17.88;63.31;97119.16;1719129;82;20204;-89
2022/09/16 09:25:04;;;;;;;;;;;;;;;17.79;66.01;97119.87;1721059;82;20247;-89
2022/09/16 09:27:36;;;;;;;;;;;;;;;17.89;66.46;97111.95;1732299;82;20579;-90
2022/09/16 09:30:20;;;;;;;;;;;;;;;17.90;65.27;97106.69;1718400;82;21077;-90
2022/09/16 09:33:09;;;;;;;;;;;;;;;17.96;66.10;97108.04;1741735;82;20133;-88
2022/09/16 09:35:51;;;;;;;;;;;;;;;18.12;66.02;97102.60;1715023;82;20230;-88
2022/09/16 09:38:35;;;;;;;;;;;;;;;18.21;64.93;97103.23;1722873;81;20214;-88
2022/09/16 09:41:13;;;;;;;;;;;;;;;18.38;65.30;97102.11;1722967;82;20240;-87
2022/09/16 09:43:48;;;;;;;;;;;;;;;18.69;63.54;97103.28;1724853;82;21967;-89
2022/09/16 09:46:29;;;;;;;;;;;;;;;18.74;61.79;97106.57;1722906;82;20210;-90
2022/09/16 09:49:01;;;;;;;;;;;;;;;18.58;62.69;97106.53;1729813;82;20221;-88
2022/09/16 09:51:31;;;;;;;;;;;;;;;18.68;61.56;97105.23;1723429;82;20582;-89
2022/09/16 09:54:02;;;;;;;;;;;;;;;18.66;59.66;97106.75;1726861;82;20248;-87
2022/09/16 09:56:33;;;;;;;;;;;;;;;18.72;59.63;97114.37;1723418;82;21111;-89
2022/09/16 09:59:11;;;;;;;;;;;;;;;18.60;60.31;97108.34;1721393;82;20245;-87
2022/09/16 10:01:37;;;;;;;;;;;;;;;18.68;60.04;97107.18;1717118;82;20203;-89
2022/09/16 10:04:07;;;;;;;;;;;;;;;18.77;60.60;97112.70;1715569;82;20198;-87
2022/09/16 10:06:33;;;;;;;;;;;;;;;18.91;59.69;97097.17;1715292;82;20192;-87
2022/09/16 10:08:58;;;;;;;;;;;;;;;19.02;60.73;97101.53;1730374;82;21067;-89
2022/09/16 10:11:30;;;;;;;;;;;;;;;19.24;61.13;97104.20;1728144;82;20282;-90
2022/09/16 10:13:58;;;;;;;;;;;;;;;19.37;59.08;97107.83;1724134;82;20291;-88
2022/09/16 10:16:29;;;;;;;;;;;;;;;19.47;58.96;97098.22;1722362;82;20228;-90
2022/09/16 10:19:07;;;;;;;;;;;;;;;19.38;55.02;97099.01;1722907;82;20484;-90
2022/09/16 10:21:44;;;;;;;;;;;;;;;19.15;55.20;97096.16;1724689;82;21621;-88
2022/09/16 10:24:30;;;;;;;;;;;;;;;19.36;57.20;97098.58;1727829;80;20261;-87
2022/09/16 10:26:57;;;;;;;;;;;;;;;19.63;57.99;97095.45;1718012;82;20199;-88
2022/09/16 10:29:22;;;;;;;;;;;;;;;19.83;55.44;97096.27;1717948;82;20192;-90
2022/09/16 10:31:48;;;;;;;;;;;;;;;19.72;56.88;97089.16;1737729;82;20202;-88
2022/09/16 10:34:21;;;;;;;;;;;;;;;19.72;54.26;97091.33;1730321;82;21024;-90
2022/09/16 10:36:50;;;;;;;;;;;;;;;19.61;55.72;97099.14;1725551;82;20496;-89
2022/09/16 10:39:23;;;;;;;;;;;;;;;19.62;56.49;97102.11;1708969;82;20215;-86
2022/09/16 10:41:48;;;;;;;;;;;;;;;19.56;55.27;97096.64;1701587;82;20184;-89
2022/09/16 10:44:26;;;;;;;;;;;;;;;19.52;54.73;97098.53;1722336;82;20152;-87
2022/09/16 10:47:08;;;;;;;;;;;;;;;19.23;55.08;97093.80;1726260;82;21095;-89
2022/09/16 10:49:45;;;;;;;;;;;;;;;19.13;56.84;97086.89;1726294;82;20192;-89
2022/09/16 10:52:19;;;;;;;;;;;;;;;19.36;57.49;97088.97;1727499;82;20230;-87
2022/09/16 10:54:45;;;;;;;;;;;;;;;19.55;55.85;97082.11;1720367;82;20631;-90
2022/09/16 10:57:23;;;;;;;;;;;;;;;19.81;56.15;97088.36;1731980;82;20322;-87
2022/09/16 11:00:13;;;;;;;;;;;;;;;20.02;57.89;97088.00;1725343;82;21250;-88
2022/09/16 11:03:11;;;;;;;;;;;;;;;19.99;56.74;97089.50;1677801;82;20186;-89
2022/09/16 11:06:09;;;;;;;;;;;;;;;20.10;55.38;97089.73;1727898;82;20229;-87
2022/09/16 11:09:03;;;;;;;;;;;;;;;20.10;53.28;97080.11;1719877;82;20159;-87
2022/09/16 11:12:02;;;;;;;;;;;;;;;19.83;56.68;97087.44;1726174;82;20587;-87
2022/09/16 11:14:38;;;;;;;;;;;;;;;19.78;56.75;97091.84;1722327;82;21054;-87
2022/09/16 11:17:29;;;;;;;;;;;;;;;19.52;55.16;97086.17;1732696;82;20273;-87
2022/09/16 11:20:18;;;;;;;;;;;;;;;19.36;55.71;97086.22;1726148;82;20219;-87
2022/09/16 11:22:57;;;;;;;;;;;;;;;19.30;56.56;97087.06;1724509;82;20216;-87
2022/09/16 11:25:30;;;;;;;;;;;;;;;19.41;55.15;97078.50;1726296;82;20207;-89
2022/09/16 11:28:14;;;;;;;;;;;;;;;19.30;54.80;97077.45;1729991;82;21285;-87
2022/09/16 11:30:43;;;;;;;;;;;;;;;19.24;56.64;97076.17;1717581;82;20287;-88
2022/09/16 11:33:13;;;;;;;;;;;;;;;19.43;55.56;97075.39;1728762;82;20228;-90
2022/09/16 11:36:05;;;;;;;;;;;;;;;19.42;54.54;97073.22;1720382;82;20237;-87
2022/09/16 11:38:56;;;;;;;;;;;;;;;19.42;54.16;97077.34;1717644;82;20192;-87
2022/09/16 11:41:28;;;;;;;;;;;;;;;19.46;53.28;97066.42;1721718;82;21373;-89
2022/09/16 11:44:14;;;;;;;;;;;;;;;19.36;54.13;97066.41;1721942;82;20185;-90
2022/09/16 11:47:11;;;;;;;;;;;;;;;19.54;55.13;97064.04;1720092;82;20217;-88
2022/09/16 11:50:03;;;;;;;;;;;;;;;19.70;54.03;97062.62;1728437;82;20214;-87
2022/09/16 11:52:51;;;;;;;;;;;;;;;19.67;54.44;97067.48;1716536;82;20224;-87
2022/09/16 11:55:39;;;;;;;;;;;;;;;19.68;52.66;97068.48;1722818;82;21045;-89
2022/09/16 11:58:21;;;;;;;;;;;;;;;19.52;53.06;97062.23;1719905;82;20598;-87
2022/09/16 12:00:48;;;;;;;;;;;;;;;19.71;53.07;97073.83;1707735;82;20503;-89
2022/09/16 12:03:29;;;;;;;;;;;;;;;19.85;52.79;97064.51;1724869;82;20935;-87
2022/09/16 12:06:02;;;;;;;;;;;;;;;19.86;49.39;97058.42;1723709;82;20181;-90
2022/09/16 12:08:36;;;;;;;;;;;;;;;19.86;53.49;97057.84;1700283;82;21202;-89
2022/09/16 12:11:20;;;;;;;;;;;;;;;19.96;50.59;97055.88;1718171;82;20220;-88
2022/09/16 12:13:51;;;;;;;;;;;;;;;19.86;51.30;97046.06;1723589;82;20271;-89
2022/09/16 12:18:56;;;;;;;6.37;1.72;;;;;;;20.14;51.65;97042.45;1841304;74;22417;-89
2022/09/16 12:21:31;;;;;;;2.92;1.20;;;;;;;20.34;50.10;97043.22;1789298;78;20889;-87
2022/09/16 12:24:24;;;;;;;4.83;1.82;;;;;;;20.17;50.52;97044.48;1782892;78;21054;-88
2022/09/16 12:27:25;;;;;;;3.00;1.40;;;;;;;20.21;49.68;97042.58;1780604;78;20953;-88
2022/09/16 12:30:06;;;;;;;3.52;1.67;;;;;;;20.25;51.11;97029.70;1780759;78;21595;-89
2022/09/16 12:32:56;;;;;;;4.37;1.62;;;;;;;20.42;50.14;97029.77;1741609;78;21012;-87
2022/09/16 12:35:35;;;;;;;2.95;1.67;;;;;;;20.47;49.60;97029.50;1767953;78;20958;-89
2022/09/16 12:38:01;;;;;;;3.10;0.88;;;;;;;20.53;48.63;97030.78;1764630;78;21508;-87
2022/09/16 12:40:32;;;;;;;6.30;1.47;;;;;;;20.79;47.27;97023.72;1781667;78;20881;-87
2022/09/16 12:43:25;;;;;;;4.40;1.12;;;;;;;20.63;48.33;97017.56;1783616;78;21013;-89
2022/09/16 12:46:05;;;;;;;1.35;0.90;;;;;;;20.66;48.98;97016.23;1761309;78;21092;-87
2022/09/16 12:49:04;;;;;;;3.77;1.40;;;;;;;20.45;49.58;97025.53;1775897;78;21041;-89
2022/09/16 12:52:02;;;;;;;12.65;1.85;;;;;;;20.05;49.48;97020.48;1773518;78;21033;-87
2022/09/16 12:54:41;;;;;;;;;;;;;;;19.88;50.44;97011.54;1784997;78;21041;-89
2022/09/16 12:57:17;;;;;;;5.10;1.50;;;;;;;19.79;50.43;97011.56;1783493;78;20979;-88
2022/09/16 13:00:09;;;;;;;3.77;1.70;;;;;;;19.77;51.08;97013.30;1731264;80;21018;-86
2022/09/16 13:02:53;;;;;;;7.50;2.15;;;;;;;19.73;50.42;97004.18;1785517;78;20995;-89